createdAt,value
2022-09-02T00:00:08.531Z,16.60
2022-09-02T00:03:00.848Z,16.60
2022-09-02T00:05:53.139Z,16.70
2022-09-02T00:08:45.684Z,16.80
2022-09-02T00:11:39.146Z,16.90
2022-09-02T00:14:35.238Z,17.00
2022-09-02T00:17:28.127Z,16.80
2022-09-02T00:20:20.862Z,16.70
2022-09-02T00:23:13.416Z,16.70
2022-09-02T00:26:05.815Z,16.80
2022-09-02T00:28:58.041Z,16.90
2022-09-02T00:31:51.081Z,16.90
2022-09-02T00:34:43.394Z,16.90
2022-09-02T00:37:36.076Z,16.90
2022-09-02T00:40:32.420Z,16.90
2022-09-02T00:43:47.359Z,17.00
2022-09-02T00:46:40.038Z,17.00
2022-09-02T00:49:35.373Z,16.90
2022-09-02T00:52:33.862Z,16.80
2022-09-02T00:55:44.891Z,16.90
2022-09-02T00:58:37.716Z,16.90
2022-09-02T01:01:30.073Z,17.00
2022-09-02T01:04:22.342Z,17.00
2022-09-02T01:07:16.159Z,17.00
2022-09-02T01:10:17.267Z,17.00
2022-09-02T01:13:12.572Z,17.00
2022-09-02T01:16:30.842Z,17.00
2022-09-02T01:19:36.888Z,16.90
2022-09-02T01:22:32.322Z,16.90
2022-09-02T01:25:29.538Z,17.00
2022-09-02T01:28:23.006Z,17.00
2022-09-02T01:31:15.701Z,17.00
2022-09-02T01:34:07.935Z,16.90
2022-09-02T01:37:00.154Z,16.80
2022-09-02T01:39:53.293Z,16.80
2022-09-02T01:42:47.225Z,16.70
2022-09-02T01:45:41.723Z,16.70
2022-09-02T01:48:37.124Z,16.70
2022-09-02T01:51:29.453Z,16.60
2022-09-02T01:54:22.080Z,16.60
2022-09-02T01:57:14.872Z,16.60
2022-09-02T02:00:09.030Z,16.60
2022-09-02T02:03:01.832Z,16.70
2022-09-02T02:05:54.139Z,16.70
2022-09-02T02:08:46.553Z,16.70
2022-09-02T02:11:39.082Z,16.60
2022-09-02T02:14:31.304Z,16.70
2022-09-02T02:17:23.559Z,16.80
2022-09-02T02:20:17.260Z,16.70
2022-09-02T02:23:09.711Z,16.60
2022-09-02T02:26:01.968Z,16.60
2022-09-02T02:28:55.595Z,16.40
2022-09-02T02:31:47.973Z,16.30
2022-09-02T02:34:40.600Z,16.40
2022-09-02T02:37:32.895Z,16.50
2022-09-02T02:40:25.881Z,16.50
2022-09-02T02:43:18.147Z,16.50
2022-09-02T02:46:12.072Z,16.50
2022-09-02T02:49:06.061Z,16.40
2022-09-02T02:51:58.245Z,16.40
2022-09-02T02:54:50.482Z,16.40
2022-09-02T02:57:44.405Z,16.50
2022-09-02T03:00:37.380Z,16.30
2022-09-02T03:03:29.799Z,16.20
2022-09-02T03:06:26.500Z,16.20
2022-09-02T03:09:20.446Z,16.30
2022-09-02T03:12:12.646Z,16.20
2022-09-02T03:15:06.840Z,16.10
2022-09-02T03:17:59.289Z,16.10
2022-09-02T03:20:51.886Z,16.10
2022-09-02T03:23:45.147Z,16.10
2022-09-02T03:26:37.433Z,16.00
2022-09-02T03:29:29.973Z,15.90
2022-09-02T03:32:22.165Z,15.90
2022-09-02T03:35:20.159Z,15.90
2022-09-02T03:38:13.203Z,16.00
2022-09-02T03:41:05.457Z,15.90
2022-09-02T03:43:57.785Z,15.90
2022-09-02T03:46:50.422Z,15.90
2022-09-02T03:49:43.701Z,15.90
2022-09-02T03:52:37.130Z,15.80
2022-09-02T03:55:30.109Z,15.80
2022-09-02T03:58:25.870Z,15.90
2022-09-02T04:01:24.782Z,16.00
2022-09-02T04:04:22.830Z,16.00
2022-09-02T04:07:15.326Z,16.00
2022-09-02T04:10:09.022Z,16.00
2022-09-02T04:13:01.177Z,16.00
2022-09-02T04:15:53.492Z,15.90
2022-09-02T04:18:45.871Z,16.00
2022-09-02T04:21:40.377Z,16.00
2022-09-02T04:24:32.570Z,16.00
2022-09-02T04:27:24.861Z,16.10
2022-09-02T04:30:17.431Z,16.20
2022-09-02T04:33:09.914Z,16.20
2022-09-02T04:36:06.466Z,16.20
2022-09-02T04:38:59.475Z,16.20
2022-09-02T04:41:53.839Z,16.20
2022-09-02T04:44:46.840Z,16.20
2022-09-02T04:47:39.101Z,16.30
2022-09-02T04:50:31.296Z,16.40
2022-09-02T04:53:23.552Z,16.40
2022-09-02T04:56:20.635Z,16.50
2022-09-02T04:59:12.867Z,16.60
2022-09-02T05:02:05.902Z,16.50
2022-09-02T05:04:58.213Z,16.60
2022-09-02T05:07:50.373Z,16.70
2022-09-02T05:10:43.060Z,16.90
2022-09-02T05:13:35.732Z,16.90
2022-09-02T05:16:31.022Z,17.00
2022-09-02T05:19:25.282Z,17.10
2022-09-02T05:22:17.972Z,17.20
2022-09-02T05:25:11.415Z,17.30
2022-09-02T05:28:04.272Z,17.70
2022-09-02T05:30:56.885Z,18.20
2022-09-02T05:33:49.253Z,19.10
2022-09-02T05:36:41.478Z,20.00
2022-09-02T05:39:33.752Z,20.50
2022-09-02T05:42:26.097Z,20.80
2022-09-02T05:45:18.865Z,20.60
2022-09-02T05:48:29.814Z,20.50
2022-09-02T05:51:22.574Z,20.50
2022-09-02T05:54:24.386Z,20.40
2022-09-02T05:57:18.148Z,20.40
2022-09-02T06:00:11.045Z,20.50
2022-09-02T06:03:09.631Z,20.60
2022-09-02T06:06:06.561Z,20.70
2022-09-02T06:09:00.762Z,20.70
2022-09-02T06:11:53.078Z,20.80
2022-09-02T06:14:45.468Z,20.80
2022-09-02T06:17:37.688Z,20.90
2022-09-02T06:20:32.508Z,20.60
2022-09-02T06:23:24.841Z,20.60
2022-09-02T06:26:18.396Z,20.40
2022-09-02T06:29:11.514Z,20.00
2022-09-02T06:32:03.940Z,19.50
2022-09-02T06:34:56.142Z,19.20
2022-09-02T06:37:49.065Z,18.90
2022-09-02T06:40:49.434Z,18.90
2022-09-02T06:43:42.798Z,19.00
2022-09-02T06:46:39.983Z,19.00
2022-09-02T06:49:32.296Z,19.00
2022-09-02T06:52:24.669Z,19.10
2022-09-02T06:55:18.201Z,19.30
2022-09-02T06:58:10.614Z,19.10
2022-09-02T07:01:02.990Z,19.00
2022-09-02T07:04:13.783Z,19.00
2022-09-02T07:07:08.538Z,19.10
2022-09-02T07:10:00.772Z,19.30
2022-09-02T07:12:52.944Z,19.30
2022-09-02T07:15:45.152Z,19.20
2022-09-02T07:18:37.364Z,19.10
2022-09-02T07:21:31.185Z,19.10
2022-09-02T07:24:23.645Z,19.20
2022-09-02T07:27:15.901Z,19.40
2022-09-02T07:30:08.755Z,19.50
2022-09-02T07:33:01.850Z,19.50
2022-09-02T07:35:54.034Z,19.60
2022-09-02T07:38:46.392Z,19.40
2022-09-02T07:41:39.998Z,19.30
2022-09-02T07:44:32.517Z,19.40
2022-09-02T07:47:24.777Z,19.40
2022-09-02T07:50:20.819Z,19.80
2022-09-02T07:53:14.162Z,19.80
2022-09-02T07:56:07.043Z,19.50
2022-09-02T07:58:59.441Z,19.90
2022-09-02T08:01:52.581Z,19.80
2022-09-02T08:04:45.250Z,20.10
2022-09-02T08:07:38.271Z,20.10
2022-09-02T08:10:31.486Z,20.00
2022-09-02T08:13:27.061Z,20.30
2022-09-02T08:16:20.083Z,20.60
2022-09-02T08:19:14.155Z,20.30
2022-09-02T08:22:06.738Z,20.00
2022-09-02T08:24:59.131Z,19.50
2022-09-02T08:27:53.243Z,19.50
2022-09-02T08:30:46.028Z,19.90
2022-09-02T08:33:38.274Z,20.20
2022-09-02T08:36:30.607Z,20.00
2022-09-02T08:42:23.427Z,19.80
2022-09-02T08:45:20.898Z,20.20
2022-09-02T08:48:13.022Z,19.90
2022-09-02T08:51:10.983Z,20.30
2022-09-02T08:54:20.787Z,20.30
2022-09-02T08:57:13.309Z,20.30
2022-09-02T09:00:07.451Z,20.10
2022-09-02T09:03:15.431Z,20.00
2022-09-02T09:06:25.551Z,20.40
2022-09-02T09:09:54.458Z,20.90
2022-09-02T09:13:40.750Z,20.70
2022-09-02T09:16:39.487Z,21.10
2022-09-02T09:19:34.379Z,21.10
2022-09-02T09:22:32.833Z,21.20
2022-09-02T09:25:29.740Z,21.20
2022-09-02T09:28:22.024Z,21.40
2022-09-02T09:31:23.379Z,21.60
2022-09-02T09:34:15.628Z,21.80
2022-09-02T09:37:07.842Z,21.40
2022-09-02T09:40:00.860Z,21.30
2022-09-02T09:43:14.594Z,21.40
2022-09-02T09:46:32.225Z,21.50
2022-09-02T09:49:27.411Z,22.20
2022-09-02T09:52:27.805Z,22.80
2022-09-02T09:55:24.825Z,23.50
2022-09-02T09:58:17.900Z,23.50
2022-09-02T10:01:23.966Z,23.10
2022-09-02T10:04:45.713Z,22.50
2022-09-02T10:07:41.185Z,22.30
2022-09-02T10:10:37.334Z,22.30
2022-09-02T10:13:31.758Z,22.30
2022-09-02T10:16:36.302Z,22.10
2022-09-02T10:19:49.907Z,21.90
2022-09-02T10:23:00.628Z,22.00
2022-09-02T10:26:01.967Z,22.00
2022-09-02T10:29:22.684Z,21.90
2022-09-02T10:32:20.866Z,22.00
2022-09-02T10:35:40.131Z,22.30
2022-09-02T10:38:44.792Z,22.30
2022-09-02T10:44:46.083Z,22.20
2022-09-02T10:47:40.313Z,22.30
2022-09-02T10:50:46.802Z,22.40
2022-09-02T10:53:47.599Z,22.20
2022-09-02T10:56:53.820Z,22.40
2022-09-02T11:00:19.396Z,22.70
2022-09-02T11:03:18.202Z,22.60
2022-09-02T11:06:51.708Z,22.90
2022-09-02T11:10:01.337Z,23.00
2022-09-02T11:13:11.624Z,23.10
2022-09-02T11:16:07.595Z,23.00
2022-09-02T11:19:05.624Z,23.10
2022-09-02T11:22:03.568Z,23.00
2022-09-02T11:25:08.471Z,22.40
2022-09-02T11:28:25.348Z,22.50
2022-09-02T11:31:39.366Z,22.50
2022-09-02T11:34:35.905Z,22.50
2022-09-02T11:37:57.170Z,22.80
2022-09-02T11:41:32.078Z,22.50
2022-09-02T11:44:20.306Z,22.20
2022-09-02T11:47:15.567Z,22.20
2022-09-02T11:50:26.777Z,22.00
2022-09-02T11:53:47.166Z,22.00
2022-09-02T11:56:46.417Z,22.40
2022-09-02T11:59:50.774Z,22.10
2022-09-02T12:02:51.009Z,22.20
2022-09-02T12:05:49.387Z,22.20
2022-09-02T12:08:43.021Z,22.40
2022-09-02T12:11:46.062Z,22.30
2022-09-02T12:14:47.302Z,22.30
2022-09-02T12:17:48.511Z,22.20
2022-09-02T12:20:41.623Z,22.10
2022-09-02T12:23:54.763Z,22.20
2022-09-02T12:26:47.697Z,22.30
2022-09-02T12:29:40.832Z,22.10
2022-09-02T12:32:48.940Z,22.00
2022-09-02T12:35:41.161Z,22.10
2022-09-02T12:38:40.832Z,22.00
2022-09-02T12:41:40.759Z,22.00
2022-09-02T12:44:51.451Z,21.80
2022-09-02T12:47:53.735Z,21.80
2022-09-02T12:50:57.697Z,22.00
2022-09-02T12:53:51.133Z,21.90
2022-09-02T12:56:50.100Z,22.00
2022-09-02T12:59:43.481Z,22.00
2022-09-02T13:02:38.779Z,22.10
2022-09-02T13:05:54.460Z,22.20
2022-09-02T13:09:07.715Z,21.90
2022-09-02T13:12:24.669Z,21.80
2022-09-02T13:15:48.842Z,21.70
2022-09-02T13:19:20.338Z,21.80
2022-09-02T13:22:31.345Z,21.90
2022-09-02T13:26:01.785Z,21.80
2022-09-02T13:28:56.774Z,22.00
2022-09-02T13:32:10.653Z,21.90
2022-09-02T13:35:06.766Z,21.90
2022-09-02T13:38:00.797Z,21.90
2022-09-02T13:40:53.573Z,21.80
2022-09-02T13:43:45.760Z,21.70
2022-09-02T13:46:45.921Z,21.70
2022-09-02T13:49:41.249Z,21.80
2022-09-02T13:53:19.975Z,21.90
2022-09-02T13:55:54.467Z,21.80
2022-09-02T13:58:53.084Z,21.70
2022-09-02T14:01:45.398Z,21.70
2022-09-02T14:04:39.689Z,21.80
2022-09-02T14:07:43.474Z,21.70
2022-09-02T14:10:37.296Z,21.80
2022-09-02T14:13:29.570Z,21.70
2022-09-02T14:16:26.541Z,21.60
2022-09-02T14:19:21.714Z,21.60
2022-09-02T14:22:31.972Z,21.50
2022-09-02T14:25:27.523Z,21.30
2022-09-02T14:28:23.483Z,21.40
2022-09-02T14:31:28.395Z,21.60
2022-09-02T14:34:41.848Z,21.50
2022-09-02T14:37:34.469Z,21.50
2022-09-02T14:40:38.228Z,21.60
2022-09-02T14:43:41.494Z,21.70
2022-09-02T14:46:38.586Z,21.80
2022-09-02T14:49:36.777Z,21.80
2022-09-02T14:52:36.702Z,21.80
2022-09-02T14:55:47.153Z,21.80
2022-09-02T14:58:39.358Z,21.60
2022-09-02T15:01:31.561Z,21.70
2022-09-02T15:04:23.837Z,21.70
2022-09-02T15:07:16.230Z,21.70
2022-09-02T15:10:09.822Z,21.70
2022-09-02T15:13:02.203Z,21.60
2022-09-02T15:15:55.630Z,21.50
2022-09-02T15:18:48.010Z,21.50
2022-09-02T15:21:40.468Z,21.60
2022-09-02T15:24:32.924Z,21.60
2022-09-02T15:27:25.085Z,21.70
2022-09-02T15:30:17.650Z,21.60
2022-09-02T15:33:16.561Z,21.60
2022-09-02T15:36:12.873Z,21.60
2022-09-02T15:39:05.080Z,21.60
2022-09-02T15:41:57.400Z,21.70
2022-09-02T15:44:49.608Z,21.80
2022-09-02T15:47:42.179Z,21.70
2022-09-02T15:50:34.443Z,21.70
2022-09-02T15:53:26.622Z,21.50
2022-09-02T15:56:24.567Z,21.30
2022-09-02T15:59:21.042Z,21.30
2022-09-02T16:02:13.420Z,21.40
2022-09-02T16:05:06.007Z,21.40
2022-09-02T16:07:58.216Z,21.30
2022-09-02T16:10:50.403Z,21.30
2022-09-02T16:13:43.010Z,21.20
2022-09-02T16:16:36.449Z,21.10
2022-09-02T16:19:30.515Z,21.10
2022-09-02T16:22:22.846Z,21.00
2022-09-02T16:25:15.101Z,20.90
2022-09-02T16:28:07.327Z,20.50
2022-09-02T16:30:59.601Z,20.20
2022-09-02T16:33:57.292Z,20.00
2022-09-02T16:36:53.293Z,19.80
2022-09-02T16:39:45.511Z,19.80
2022-09-02T16:42:38.352Z,19.60
2022-09-02T16:45:30.719Z,19.60
2022-09-02T16:48:25.761Z,19.40
2022-09-02T16:51:18.775Z,19.30
2022-09-02T16:54:17.502Z,19.30
2022-09-02T16:57:13.607Z,19.20
2022-09-02T17:00:06.497Z,19.10
2022-09-02T17:02:58.913Z,19.10
2022-09-02T17:05:51.082Z,19.00
2022-09-02T17:08:43.587Z,18.90
2022-09-02T17:11:39.501Z,18.90
2022-09-02T17:14:31.709Z,18.80
2022-09-02T17:17:24.039Z,18.70
2022-09-02T17:20:16.331Z,18.70
2022-09-02T17:23:08.724Z,18.70
2022-09-02T17:26:01.813Z,18.70
2022-09-02T17:28:56.582Z,18.70
2022-09-02T17:31:48.881Z,18.70
2022-09-02T17:34:41.330Z,18.70
2022-09-02T17:37:37.107Z,18.60
2022-09-02T17:40:47.832Z,18.50
2022-09-02T17:43:40.024Z,18.50
2022-09-02T17:46:32.269Z,18.50
2022-09-02T17:49:24.587Z,18.50
2022-09-02T17:52:22.622Z,18.50
2022-09-02T17:55:14.918Z,18.50
2022-09-02T17:58:15.017Z,18.40
2022-09-02T18:01:11.249Z,18.40
2022-09-02T18:04:33.332Z,18.40
2022-09-02T18:07:36.711Z,18.40
2022-09-02T18:10:53.928Z,18.30
2022-09-02T18:14:06.474Z,18.30
2022-09-02T18:17:24.501Z,18.30
2022-09-02T18:20:23.642Z,18.30
2022-09-02T18:26:25.688Z,18.30
2022-09-02T18:30:06.800Z,18.20
2022-09-02T18:33:15.536Z,18.20
2022-09-02T18:36:07.716Z,18.20
2022-09-02T18:39:27.208Z,18.20
2022-09-02T18:42:38.172Z,18.30
2022-09-02T18:45:50.625Z,18.30
2022-09-02T18:48:43.736Z,18.30
2022-09-02T18:51:43.168Z,18.20
2022-09-02T18:54:47.979Z,18.30
2022-09-02T18:57:54.390Z,18.30
2022-09-02T19:00:55.343Z,18.20
2022-09-02T19:03:48.469Z,18.20
2022-09-02T19:06:41.262Z,18.20
2022-09-02T19:09:33.490Z,18.20
2022-09-02T19:12:28.058Z,18.20
2022-09-02T19:15:20.622Z,18.10
2022-09-02T19:18:12.798Z,18.10
2022-09-02T19:21:05.206Z,18.10
2022-09-02T19:23:57.627Z,18.10
2022-09-02T19:26:57.163Z,18.10
2022-09-02T19:29:55.250Z,18.00
2022-09-02T19:32:51.319Z,18.10
2022-09-02T19:35:49.009Z,18.10
2022-09-02T19:38:41.236Z,18.10
2022-09-02T19:41:33.506Z,18.00
2022-09-02T19:44:25.691Z,17.90
2022-09-02T19:50:30.289Z,17.80
2022-09-02T19:53:27.862Z,17.80
2022-09-02T19:56:20.763Z,17.70
2022-09-02T19:59:13.570Z,17.70
2022-09-02T20:02:06.334Z,17.60
2022-09-02T20:04:58.553Z,17.60
2022-09-02T20:07:50.764Z,17.60
2022-09-02T20:10:42.968Z,17.60
2022-09-02T20:13:40.952Z,17.40
2022-09-02T20:16:34.360Z,17.40
2022-09-02T20:19:26.893Z,17.30
2022-09-02T20:22:19.194Z,17.30
2022-09-02T20:25:11.971Z,17.20
2022-09-02T20:28:10.029Z,17.10
2022-09-02T20:31:31.733Z,17.10
2022-09-02T20:34:29.633Z,17.00
2022-09-02T20:38:00.342Z,17.00
2022-09-02T20:41:10.915Z,16.90
2022-09-02T20:44:10.914Z,16.90
2022-09-02T20:47:21.908Z,16.80
2022-09-02T20:50:39.695Z,16.80
2022-09-02T20:54:02.717Z,16.80
2022-09-02T20:57:33.048Z,16.70
2022-09-02T21:00:26.042Z,16.70
2022-09-02T21:03:23.709Z,16.70
2022-09-02T21:06:16.613Z,16.60
2022-09-02T21:09:38.944Z,16.60
2022-09-02T21:12:43.478Z,16.50
2022-09-02T21:15:46.895Z,16.40
2022-09-02T21:19:02.930Z,16.30
2022-09-02T21:22:52.592Z,16.30
2022-09-02T21:26:15.318Z,16.20
2022-09-02T21:29:12.676Z,16.10
2022-09-02T21:32:08.777Z,15.90
2022-09-02T21:35:09.877Z,15.90
2022-09-02T21:38:23.292Z,15.90
2022-09-02T21:41:18.601Z,15.90
2022-09-02T21:44:35.406Z,15.80
2022-09-02T21:47:35.354Z,15.80
2022-09-02T21:50:34.043Z,15.90
2022-09-02T21:53:45.817Z,15.80
2022-09-02T21:56:51.391Z,15.70
2022-09-02T22:00:09.398Z,15.60
2022-09-02T22:03:16.314Z,15.50
2022-09-02T22:06:18.257Z,15.50
2022-09-02T22:09:15.675Z,15.50
2022-09-02T22:12:11.902Z,15.40
2022-09-02T22:15:14.061Z,15.40
2022-09-02T22:18:14.032Z,15.30
2022-09-02T22:21:17.192Z,15.30
2022-09-02T22:24:09.666Z,15.30
2022-09-02T22:27:19.179Z,15.20
2022-09-02T22:30:17.296Z,15.30
2022-09-02T22:33:14.887Z,15.20
2022-09-02T22:36:14.664Z,15.20
2022-09-02T22:39:08.134Z,15.20
2022-09-02T22:42:32.931Z,15.20
2022-09-02T22:46:10.308Z,15.20
2022-09-02T22:49:28.302Z,15.20
2022-09-02T22:52:54.910Z,15.00
2022-09-02T22:55:52.428Z,15.10
2022-09-02T22:58:51.359Z,15.00
2022-09-02T23:02:09.775Z,15.00
2022-09-02T23:05:45.343Z,15.00
2022-09-02T23:08:37.664Z,15.00
2022-09-02T23:11:39.068Z,15.00
2022-09-02T23:14:53.009Z,14.90
2022-09-02T23:17:52.438Z,14.90
2022-09-02T23:20:46.415Z,15.00
2022-09-02T23:23:57.732Z,15.00
2022-09-02T23:27:12.800Z,15.00
2022-09-02T23:30:05.316Z,15.00
2022-09-02T23:33:31.759Z,14.90
2022-09-02T23:36:43.574Z,14.80
2022-09-02T23:40:06.000Z,14.80
2022-09-02T23:42:59.401Z,14.80
2022-09-02T23:45:55.985Z,14.70
2022-09-02T23:49:10.795Z,14.70
2022-09-02T23:52:43.238Z,14.70
2022-09-02T23:55:51.135Z,14.60
2022-09-02T23:59:01.762Z,14.60
